createdAt,value
2023-03-17T00:00:44.657Z,4.95
2023-03-17T00:03:25.548Z,3.47
2023-03-17T00:05:53.369Z,7.30
2023-03-17T00:08:22.306Z,2.90
2023-03-17T00:10:49.505Z,4.32
2023-03-17T00:13:16.351Z,4.05
2023-03-17T00:15:43.386Z,6.80
2023-03-17T00:18:17.469Z,3.22
2023-03-17T00:20:44.228Z,10.63
2023-03-17T00:23:15.492Z,3.60
2023-03-17T00:25:43.247Z,3.65
2023-03-17T00:28:13.818Z,3.60
2023-03-17T00:30:40.135Z,3.53
2023-03-17T00:33:07.508Z,3.22
2023-03-17T00:35:34.385Z,4.95
2023-03-17T00:38:00.830Z,4.05
2023-03-17T00:40:32.552Z,4.78
2023-03-17T00:42:59.984Z,3.80
2023-03-17T00:45:27.099Z,3.70
2023-03-17T00:47:57.515Z,3.65
2023-03-17T00:50:25.255Z,4.47
2023-03-17T00:52:52.791Z,7.80
2023-03-17T00:55:19.656Z,4.00
2023-03-17T00:57:48.531Z,3.35
2023-03-17T01:00:20.791Z,3.30
2023-03-17T01:02:49.234Z,5.97
2023-03-17T01:05:16.137Z,3.25
2023-03-17T01:07:47.858Z,4.35
2023-03-17T01:10:16.436Z,5.22
2023-03-17T01:12:43.585Z,6.40
2023-03-17T01:15:13.092Z,5.07
2023-03-17T01:17:39.981Z,8.57
2023-03-17T01:20:07.533Z,8.98
2023-03-17T01:22:34.504Z,4.03
2023-03-17T01:25:01.572Z,4.00
2023-03-17T01:27:27.934Z,10.13
2023-03-17T01:29:54.953Z,7.40
2023-03-17T01:32:22.223Z,4.32
2023-03-17T01:34:48.588Z,7.47
2023-03-17T01:37:15.148Z,6.85
2023-03-17T01:39:41.910Z,8.45
2023-03-17T01:42:08.364Z,4.95
2023-03-17T01:44:34.891Z,8.98
2023-03-17T01:47:01.258Z,3.45
2023-03-17T01:49:29.247Z,5.45
2023-03-17T01:52:09.022Z,5.70
2023-03-17T01:54:48.083Z,11.70
2023-03-17T01:57:23.708Z,6.20
2023-03-17T01:59:51.519Z,9.20
2023-03-17T02:02:22.333Z,5.13
2023-03-17T02:04:52.010Z,4.10
2023-03-17T02:07:22.158Z,7.35
2023-03-17T02:09:48.762Z,3.15
2023-03-17T02:12:19.034Z,3.85
2023-03-17T02:14:48.956Z,6.50
2023-03-17T02:17:15.307Z,7.18
2023-03-17T02:19:42.393Z,4.40
2023-03-17T02:22:09.166Z,4.75
2023-03-17T02:24:56.949Z,2.97
2023-03-17T02:27:31.062Z,4.40
2023-03-17T02:29:58.063Z,3.35
2023-03-17T02:32:24.476Z,5.90
2023-03-17T02:34:50.952Z,3.42
2023-03-17T02:37:18.334Z,5.47
2023-03-17T02:39:44.878Z,3.88
2023-03-17T02:42:12.628Z,8.38
2023-03-17T02:44:40.418Z,2.90
2023-03-17T02:47:07.579Z,2.63
2023-03-17T02:49:34.563Z,3.88
2023-03-17T02:52:01.495Z,2.75
2023-03-17T02:54:27.970Z,3.08
2023-03-17T02:56:54.434Z,5.50
2023-03-17T02:59:20.790Z,2.75
2023-03-17T03:01:48.533Z,3.30
2023-03-17T03:04:15.073Z,2.75
2023-03-17T03:06:42.580Z,3.03
2023-03-17T03:09:09.156Z,4.32
2023-03-17T03:11:35.924Z,4.47
2023-03-17T03:14:02.343Z,2.72
2023-03-17T03:16:28.747Z,4.72
2023-03-17T03:18:55.254Z,4.68
2023-03-17T03:21:22.241Z,5.93
2023-03-17T03:23:48.742Z,3.95
2023-03-17T03:26:15.455Z,4.57
2023-03-17T03:28:42.103Z,3.25
2023-03-17T03:31:08.586Z,3.30
2023-03-17T03:33:35.043Z,3.42
2023-03-17T03:36:01.582Z,3.63
2023-03-17T03:38:28.301Z,2.92
2023-03-17T03:40:54.722Z,3.75
2023-03-17T03:43:25.158Z,3.75
2023-03-17T03:45:51.817Z,3.03
2023-03-17T03:48:18.629Z,4.57
2023-03-17T03:50:45.052Z,2.55
2023-03-17T03:53:11.384Z,2.78
2023-03-17T03:55:37.778Z,3.10
2023-03-17T03:58:04.206Z,7.20
2023-03-17T04:00:30.799Z,4.28
2023-03-17T04:02:57.481Z,3.22
2023-03-17T04:05:23.934Z,2.60
2023-03-17T04:07:50.536Z,2.50
2023-03-17T04:10:17.141Z,4.88
2023-03-17T04:12:43.599Z,3.10
2023-03-17T04:15:11.325Z,2.53
2023-03-17T04:17:38.050Z,4.50
2023-03-17T04:20:04.559Z,3.45
2023-03-17T04:22:30.959Z,2.88
2023-03-17T04:24:57.275Z,7.75
2023-03-17T04:27:23.962Z,2.88
2023-03-17T04:29:50.263Z,2.75
2023-03-17T04:32:17.041Z,3.00
2023-03-17T04:34:43.775Z,2.40
2023-03-17T04:37:10.862Z,5.10
2023-03-17T04:39:37.188Z,5.93
2023-03-17T04:42:04.242Z,3.97
2023-03-17T04:44:30.850Z,9.57
2023-03-17T04:46:57.228Z,2.63
2023-03-17T04:49:23.732Z,4.70
2023-03-17T04:51:50.092Z,4.10
2023-03-17T04:54:16.546Z,2.42
2023-03-17T04:56:43.044Z,3.67
2023-03-17T04:59:09.783Z,2.38
2023-03-17T05:01:39.079Z,4.68
2023-03-17T05:04:06.683Z,5.55
2023-03-17T05:06:33.032Z,3.30
2023-03-17T05:08:59.374Z,3.35
2023-03-17T05:11:25.746Z,5.95
2023-03-17T05:13:52.433Z,2.17
2023-03-17T05:16:19.825Z,2.58
2023-03-17T05:18:46.862Z,2.45
2023-03-17T05:21:13.237Z,3.83
2023-03-17T05:23:40.232Z,2.38
2023-03-17T05:26:06.602Z,5.38
2023-03-17T05:28:33.306Z,3.05
2023-03-17T05:31:01.505Z,2.35
2023-03-17T05:33:30.139Z,4.47
2023-03-17T05:35:56.676Z,4.38
2023-03-17T05:38:23.648Z,3.22
2023-03-17T05:40:51.238Z,5.63
2023-03-17T05:43:17.896Z,7.82
2023-03-17T05:45:44.958Z,3.60
2023-03-17T05:48:13.053Z,6.10
2023-03-17T05:50:39.877Z,2.60
2023-03-17T05:53:06.445Z,3.05
2023-03-17T05:55:32.965Z,7.80
2023-03-17T05:58:00.866Z,3.42
2023-03-17T06:00:29.311Z,2.65
2023-03-17T06:02:55.981Z,5.32
2023-03-17T06:05:22.386Z,2.70
2023-03-17T06:07:55.563Z,6.47
2023-03-17T06:10:23.193Z,2.50
2023-03-17T06:12:49.699Z,10.73
2023-03-17T06:15:17.002Z,2.83
2023-03-17T06:17:43.534Z,2.90
2023-03-17T06:20:10.291Z,7.70
2023-03-17T06:22:37.342Z,3.38
2023-03-17T06:25:04.380Z,5.10
2023-03-17T06:27:30.714Z,2.58
2023-03-17T06:29:57.850Z,4.90
2023-03-17T06:32:24.209Z,5.88
2023-03-17T06:34:51.775Z,3.92
2023-03-17T06:37:18.099Z,3.03
2023-03-17T06:39:45.125Z,2.60
2023-03-17T06:42:11.473Z,2.97
2023-03-17T06:44:37.859Z,2.67
2023-03-17T06:47:04.810Z,7.20
2023-03-17T06:49:31.203Z,3.80
2023-03-17T06:51:57.981Z,4.22
2023-03-17T06:54:25.408Z,3.53
2023-03-17T06:56:52.732Z,5.35
2023-03-17T06:59:19.872Z,4.05
2023-03-17T07:01:46.618Z,2.95
2023-03-17T07:04:13.114Z,5.15
2023-03-17T07:06:39.473Z,7.47
2023-03-17T07:09:07.382Z,5.28
2023-03-17T07:11:33.783Z,3.20
2023-03-17T07:14:00.505Z,7.28
2023-03-17T07:16:27.641Z,3.47
2023-03-17T07:18:54.287Z,12.43
2023-03-17T07:21:20.641Z,2.70
2023-03-17T07:23:47.780Z,8.60
2023-03-17T07:26:14.492Z,3.08
2023-03-17T07:28:40.916Z,3.75
2023-03-17T07:31:16.366Z,5.03
2023-03-17T07:33:42.940Z,2.88
2023-03-17T07:36:10.533Z,5.30
2023-03-17T07:38:37.403Z,3.47
2023-03-17T07:41:04.814Z,5.93
2023-03-17T07:43:31.788Z,3.22
2023-03-17T07:45:58.210Z,2.55
2023-03-17T07:48:24.686Z,4.07
2023-03-17T07:50:50.989Z,7.85
2023-03-17T07:53:17.312Z,5.25
2023-03-17T07:55:43.664Z,5.65
2023-03-17T07:58:10.540Z,5.72
2023-03-17T08:00:36.934Z,6.75
2023-03-17T08:03:10.365Z,4.28
2023-03-17T08:05:37.633Z,6.18
2023-03-17T08:08:05.254Z,5.35
2023-03-17T08:10:32.396Z,3.60
2023-03-17T08:12:58.940Z,7.47
2023-03-17T08:15:25.294Z,5.47
2023-03-17T08:17:51.691Z,4.05
2023-03-17T08:20:18.049Z,2.92
2023-03-17T08:22:44.552Z,4.88
2023-03-17T08:25:11.727Z,3.35
2023-03-17T08:27:38.618Z,3.22
2023-03-17T08:30:05.762Z,4.82
2023-03-17T08:32:32.138Z,5.25
2023-03-17T08:34:58.629Z,5.78
2023-03-17T08:37:24.998Z,4.25
2023-03-17T08:39:51.371Z,4.00
2023-03-17T08:42:17.722Z,3.95
2023-03-17T08:44:44.271Z,4.32
2023-03-17T08:47:10.876Z,14.63
2023-03-17T08:49:37.432Z,4.70
2023-03-17T08:52:04.281Z,3.25
2023-03-17T08:54:30.646Z,3.72
2023-03-17T08:56:57.667Z,5.80
2023-03-17T08:59:24.013Z,8.00
2023-03-17T09:01:50.568Z,5.30
2023-03-17T09:04:17.092Z,7.70
2023-03-17T09:07:01.140Z,5.22
2023-03-17T09:09:30.717Z,4.15
2023-03-17T09:11:57.279Z,5.22
2023-03-17T09:14:24.791Z,6.35
2023-03-17T09:16:51.278Z,7.15
2023-03-17T09:19:17.928Z,8.65
2023-03-17T09:21:44.845Z,3.40
2023-03-17T09:24:11.321Z,5.40
2023-03-17T09:26:37.666Z,5.40
2023-03-17T09:29:05.174Z,3.85
2023-03-17T09:31:32.204Z,5.80
2023-03-17T09:33:58.845Z,5.97
2023-03-17T09:36:26.037Z,5.68
2023-03-17T09:38:52.596Z,3.70
2023-03-17T09:41:37.867Z,4.07
2023-03-17T09:44:15.087Z,4.25
2023-03-17T09:47:00.057Z,6.32
2023-03-17T09:49:38.379Z,3.60
2023-03-17T09:52:04.814Z,4.90
2023-03-17T09:54:33.450Z,5.65
2023-03-17T09:57:18.433Z,4.90
2023-03-17T09:59:47.299Z,5.45
2023-03-17T10:02:17.333Z,4.88
2023-03-17T10:04:44.943Z,4.53
2023-03-17T10:07:16.100Z,4.32
2023-03-17T10:09:46.206Z,3.53
2023-03-17T10:12:20.019Z,5.07
2023-03-17T10:14:54.449Z,10.20
2023-03-17T10:17:26.061Z,5.35
2023-03-17T10:20:08.345Z,6.07
2023-03-17T10:22:38.828Z,3.55
2023-03-17T10:25:10.045Z,4.03
2023-03-17T10:27:37.201Z,7.45
2023-03-17T10:30:04.718Z,14.80
2023-03-17T10:32:32.245Z,6.70
2023-03-17T10:34:58.539Z,7.40
2023-03-17T10:37:26.759Z,6.32
2023-03-17T10:39:56.961Z,4.53
2023-03-17T10:42:27.330Z,5.70
2023-03-17T10:44:56.314Z,10.23
2023-03-17T10:47:24.368Z,12.57
2023-03-17T10:49:52.450Z,8.05
2023-03-17T10:52:21.058Z,5.65
2023-03-17T10:54:48.416Z,7.72
2023-03-17T10:57:15.298Z,3.97
2023-03-17T10:59:44.473Z,6.32
2023-03-17T11:02:20.194Z,4.80
2023-03-17T11:04:46.900Z,6.03
2023-03-17T11:07:16.239Z,7.97
2023-03-17T11:09:42.971Z,6.47
2023-03-17T11:12:29.348Z,5.25
2023-03-17T11:15:00.160Z,7.93
2023-03-17T11:17:41.832Z,6.85
2023-03-17T11:20:26.486Z,6.35
2023-03-17T11:22:56.499Z,8.57
2023-03-17T11:25:24.575Z,6.05
2023-03-17T11:27:57.493Z,4.78
2023-03-17T11:30:39.547Z,7.35
2023-03-17T11:33:08.957Z,8.15
2023-03-17T11:35:53.909Z,8.32
2023-03-17T11:38:24.721Z,8.75
2023-03-17T11:41:00.221Z,5.40
2023-03-17T11:43:44.174Z,9.40
2023-03-17T11:46:22.991Z,5.60
2023-03-17T11:49:08.002Z,4.60
2023-03-17T11:51:40.586Z,10.40
2023-03-17T11:56:46.286Z,7.60
2023-03-17T11:59:33.374Z,9.63
2023-03-17T12:02:11.119Z,6.03
2023-03-17T12:04:53.238Z,7.88
2023-03-17T12:07:30.077Z,10.02
2023-03-17T12:10:16.740Z,6.78
2023-03-17T12:12:51.209Z,4.50
2023-03-17T12:15:37.985Z,4.93
2023-03-17T12:18:10.446Z,4.57
2023-03-17T12:20:55.415Z,11.07
2023-03-17T12:23:22.304Z,4.60
2023-03-17T12:25:58.126Z,6.05
2023-03-17T12:28:29.624Z,3.95
2023-03-17T12:31:00.312Z,11.32
2023-03-17T12:33:45.491Z,5.97
2023-03-17T12:36:15.375Z,5.65
2023-03-17T12:38:47.411Z,6.90
2023-03-17T12:41:17.350Z,8.25
2023-03-17T12:43:53.876Z,10.02
2023-03-17T12:46:20.298Z,9.45
2023-03-17T12:49:13.619Z,8.90
2023-03-17T12:54:13.043Z,6.32
2023-03-17T12:56:43.779Z,6.75
2023-03-17T12:59:15.839Z,8.30
2023-03-17T13:01:46.598Z,6.57
2023-03-17T13:04:13.207Z,7.97
2023-03-17T13:06:43.612Z,6.15
2023-03-17T13:09:39.870Z,7.40
2023-03-17T13:12:06.721Z,7.88
2023-03-17T13:14:41.716Z,4.93
2023-03-17T13:17:17.856Z,7.57
2023-03-17T13:20:10.808Z,5.38
2023-03-17T13:25:12.691Z,7.85
2023-03-17T13:27:39.115Z,6.22
2023-03-17T13:30:25.755Z,5.88
2023-03-17T13:33:19.540Z,5.40
2023-03-17T13:35:46.090Z,5.05
2023-03-17T13:38:24.500Z,7.80
2023-03-17T13:41:09.744Z,10.88
2023-03-17T13:43:41.826Z,5.43
2023-03-17T13:46:19.906Z,5.55
2023-03-17T13:48:46.771Z,8.57
2023-03-17T13:51:23.864Z,8.07
2023-03-17T13:53:55.320Z,8.93
2023-03-17T13:56:45.346Z,7.20
2023-03-17T13:59:18.856Z,6.28
2023-03-17T14:01:57.595Z,4.82
2023-03-17T14:04:47.029Z,8.13
2023-03-17T14:07:18.816Z,6.38
2023-03-17T14:09:45.381Z,9.65
2023-03-17T14:12:12.256Z,14.98
2023-03-17T14:14:48.263Z,5.57
2023-03-17T14:17:17.379Z,11.27
2023-03-17T14:19:59.678Z,7.18
2023-03-17T14:22:26.520Z,7.88
2023-03-17T14:24:53.932Z,7.55
2023-03-17T14:27:22.319Z,10.82
2023-03-17T14:29:48.688Z,5.07
2023-03-17T14:32:16.312Z,9.95
2023-03-17T14:34:48.217Z,5.75
2023-03-17T14:37:15.131Z,10.07
2023-03-17T14:39:45.579Z,5.57
2023-03-17T14:42:11.947Z,11.07
2023-03-17T14:44:39.504Z,11.30
2023-03-17T14:47:12.469Z,8.93
2023-03-17T14:49:39.383Z,7.80
2023-03-17T14:52:06.102Z,7.28
2023-03-17T14:54:35.702Z,5.50
2023-03-17T14:57:05.615Z,9.90
2023-03-17T14:59:34.806Z,7.75
2023-03-17T15:02:02.686Z,6.60
2023-03-17T15:04:31.099Z,9.13
2023-03-17T15:06:58.873Z,22.58
2023-03-17T15:09:25.836Z,6.82
2023-03-17T15:11:54.032Z,9.50
2023-03-17T15:14:34.296Z,8.80
2023-03-17T15:17:04.529Z,6.93
2023-03-17T15:19:36.297Z,10.95
2023-03-17T15:22:05.116Z,10.50
2023-03-17T15:24:31.458Z,8.10
2023-03-17T15:27:02.000Z,8.05
2023-03-17T15:29:28.907Z,12.15
2023-03-17T15:32:15.579Z,12.55
2023-03-17T15:34:42.050Z,9.60
2023-03-17T15:37:15.838Z,6.22
2023-03-17T15:39:42.277Z,11.07
2023-03-17T15:42:08.923Z,6.28
2023-03-17T15:44:35.407Z,7.05
2023-03-17T15:47:02.445Z,8.38
2023-03-17T15:49:29.963Z,6.25
2023-03-17T15:51:56.335Z,9.82
2023-03-17T15:54:22.893Z,7.65
2023-03-17T15:56:49.269Z,10.10
2023-03-17T15:59:15.612Z,10.05
2023-03-17T16:01:42.413Z,8.10
2023-03-17T16:04:09.074Z,8.85
2023-03-17T16:06:35.573Z,6.60
2023-03-17T16:09:01.950Z,8.77
2023-03-17T16:11:30.553Z,5.82
2023-03-17T16:13:57.871Z,7.68
2023-03-17T16:16:30.454Z,7.50
2023-03-17T16:21:24.028Z,5.25
2023-03-17T16:23:50.577Z,8.20
2023-03-17T16:26:17.287Z,5.75
2023-03-17T16:28:45.379Z,6.18
2023-03-17T16:31:22.391Z,9.35
2023-03-17T16:33:49.171Z,9.32
2023-03-17T16:36:16.679Z,10.88
2023-03-17T16:38:43.531Z,9.65
2023-03-17T16:41:15.135Z,8.82
2023-03-17T16:43:43.107Z,6.82
2023-03-17T16:46:10.365Z,7.57
2023-03-17T16:48:36.779Z,7.03
2023-03-17T16:51:03.867Z,16.60
2023-03-17T16:53:30.428Z,9.55
2023-03-17T16:55:56.857Z,9.40
2023-03-17T16:58:24.373Z,10.18
2023-03-17T17:00:52.237Z,16.45
2023-03-17T17:03:18.625Z,27.70
2023-03-17T17:05:45.189Z,12.43
2023-03-17T17:08:11.530Z,12.15
2023-03-17T17:10:38.155Z,10.93
2023-03-17T17:13:07.602Z,15.63
2023-03-17T17:15:35.186Z,10.10
2023-03-17T17:18:02.809Z,10.15
2023-03-17T17:20:32.449Z,9.48
2023-03-17T17:23:00.548Z,8.80
2023-03-17T17:25:27.265Z,12.30
2023-03-17T17:27:54.041Z,9.25
2023-03-17T17:30:22.027Z,9.50
2023-03-17T17:32:48.569Z,15.50
2023-03-17T17:35:15.909Z,10.35
2023-03-17T17:37:42.660Z,9.57
2023-03-17T17:40:11.837Z,6.97
2023-03-17T17:42:39.801Z,9.13
2023-03-17T17:45:06.431Z,10.15
2023-03-17T17:47:32.889Z,10.95
2023-03-17T17:49:59.646Z,16.38
2023-03-17T17:52:26.036Z,15.52
2023-03-17T17:54:52.400Z,13.35
2023-03-17T17:57:18.845Z,13.85
2023-03-17T17:59:45.157Z,22.20
2023-03-17T18:02:12.565Z,17.67
2023-03-17T18:04:39.218Z,21.38
2023-03-17T18:07:05.685Z,12.57
2023-03-17T18:09:32.115Z,12.40
2023-03-17T18:11:58.544Z,15.20
2023-03-17T18:14:25.387Z,13.25
2023-03-17T18:16:52.134Z,14.35
2023-03-17T18:19:18.556Z,24.02
2023-03-17T18:21:46.159Z,14.10
2023-03-17T18:24:13.245Z,27.63
2023-03-17T18:26:39.549Z,21.55
2023-03-17T18:29:06.677Z,99.80
2023-03-17T18:31:51.768Z,27.10
2023-03-17T18:34:29.199Z,28.88
2023-03-17T18:36:57.686Z,33.63
2023-03-17T18:39:24.035Z,36.92
2023-03-17T18:41:50.522Z,20.35
2023-03-17T18:44:19.609Z,19.48
2023-03-17T18:46:46.556Z,15.30
2023-03-17T18:49:13.082Z,17.75
2023-03-17T18:51:39.479Z,21.17
2023-03-17T18:54:06.360Z,21.40
2023-03-17T18:56:32.695Z,19.10
2023-03-17T18:58:59.107Z,20.70
2023-03-17T19:01:26.144Z,22.35
2023-03-17T19:03:52.775Z,11.85
2023-03-17T19:06:20.455Z,15.23
2023-03-17T19:08:47.445Z,19.63
2023-03-17T19:11:15.335Z,19.75
2023-03-17T19:13:42.164Z,14.05
2023-03-17T19:16:09.039Z,15.60
2023-03-17T19:18:36.842Z,22.75
2023-03-17T19:21:03.758Z,13.73
2023-03-17T19:23:32.309Z,19.67
2023-03-17T19:26:01.172Z,13.02
2023-03-17T19:28:27.769Z,16.58
2023-03-17T19:30:55.970Z,18.58
2023-03-17T19:33:22.512Z,23.80
2023-03-17T19:35:55.129Z,18.65
2023-03-17T19:38:21.900Z,14.20
2023-03-17T19:40:48.401Z,17.38
2023-03-17T19:43:25.670Z,26.67
2023-03-17T19:45:59.558Z,17.60
2023-03-17T19:48:27.603Z,24.42
2023-03-17T19:50:54.557Z,19.65
2023-03-17T19:53:21.544Z,21.05
2023-03-17T19:55:49.166Z,20.50
2023-03-17T19:58:16.212Z,10.45
2023-03-17T20:00:42.496Z,16.15
2023-03-17T20:03:08.897Z,9.77
2023-03-17T20:05:35.296Z,11.13
2023-03-17T20:08:01.737Z,12.57
2023-03-17T20:10:28.595Z,9.75
2023-03-17T20:12:57.196Z,16.48
2023-03-17T20:15:23.762Z,21.98
2023-03-17T20:17:50.182Z,12.13
2023-03-17T20:20:16.668Z,18.85
2023-03-17T20:22:43.859Z,14.85
2023-03-17T20:25:10.759Z,11.57
2023-03-17T20:27:37.377Z,11.38
2023-03-17T20:30:04.859Z,10.40
2023-03-17T20:32:31.295Z,9.73
2023-03-17T20:34:58.428Z,8.25
2023-03-17T20:37:24.801Z,9.88
2023-03-17T20:39:52.651Z,9.85
2023-03-17T20:42:20.631Z,16.10
2023-03-17T20:44:53.635Z,11.55
2023-03-17T20:47:20.885Z,11.85
2023-03-17T20:49:47.860Z,12.98
2023-03-17T20:52:14.843Z,9.40
2023-03-17T20:54:41.404Z,10.50
2023-03-17T20:57:10.438Z,9.93
2023-03-17T20:59:37.110Z,9.27
2023-03-17T21:02:13.151Z,12.93
2023-03-17T21:04:40.236Z,11.70
2023-03-17T21:07:09.999Z,12.45
2023-03-17T21:09:38.267Z,8.40
2023-03-17T21:12:04.647Z,12.88
2023-03-17T21:14:31.097Z,10.23
2023-03-17T21:16:57.820Z,11.25
2023-03-17T21:19:24.780Z,12.00
2023-03-17T21:21:54.372Z,11.27
2023-03-17T21:24:28.513Z,6.63
2023-03-17T21:26:55.023Z,14.80
2023-03-17T21:29:21.412Z,24.70
2023-03-17T21:31:49.236Z,9.82
2023-03-17T21:34:15.597Z,10.52
2023-03-17T21:36:42.227Z,11.13
2023-03-17T21:39:09.523Z,10.18
2023-03-17T21:41:37.802Z,15.57
2023-03-17T21:44:04.766Z,11.35
2023-03-17T21:46:38.878Z,10.73
2023-03-17T21:49:06.185Z,10.63
2023-03-17T21:51:32.738Z,14.70
2023-03-17T21:53:59.587Z,18.10
2023-03-17T21:56:26.020Z,15.23
2023-03-17T21:58:52.541Z,10.70
2023-03-17T22:01:20.891Z,10.88
2023-03-17T22:03:48.120Z,12.20
2023-03-17T22:06:16.604Z,14.40
2023-03-17T22:08:43.029Z,9.63
2023-03-17T22:11:10.757Z,9.48
2023-03-17T22:13:37.287Z,19.98
2023-03-17T22:16:04.516Z,13.88
2023-03-17T22:18:33.236Z,17.35
2023-03-17T22:21:00.260Z,11.63
2023-03-17T22:23:27.081Z,9.85
2023-03-17T22:25:53.444Z,9.48
2023-03-17T22:28:19.760Z,11.15
2023-03-17T22:30:46.200Z,11.23
2023-03-17T22:33:13.061Z,9.82
2023-03-17T22:35:39.857Z,10.13
2023-03-17T22:38:06.909Z,14.45
2023-03-17T22:40:33.997Z,14.82
2023-03-17T22:43:00.944Z,9.25
2023-03-17T22:45:27.373Z,19.33
2023-03-17T22:47:54.266Z,17.63
2023-03-17T22:50:20.714Z,15.00
2023-03-17T22:52:47.310Z,14.60
2023-03-17T22:55:14.176Z,15.10
2023-03-17T22:57:40.695Z,12.27
2023-03-17T23:00:13.721Z,12.88
2023-03-17T23:02:43.302Z,12.93
2023-03-17T23:05:09.947Z,12.40
2023-03-17T23:07:49.701Z,15.43
2023-03-17T23:10:17.652Z,15.63
2023-03-17T23:12:44.741Z,9.73
2023-03-17T23:15:11.568Z,20.33
2023-03-17T23:17:38.461Z,16.30
2023-03-17T23:20:06.423Z,14.60
2023-03-17T23:22:32.772Z,16.05
2023-03-17T23:25:00.401Z,17.95
2023-03-17T23:27:27.142Z,12.20
2023-03-17T23:29:54.086Z,12.30
2023-03-17T23:32:20.527Z,11.68
2023-03-17T23:34:48.002Z,10.77
2023-03-17T23:37:14.473Z,15.18
2023-03-17T23:39:41.571Z,20.70
2023-03-17T23:42:07.952Z,13.90
2023-03-17T23:44:34.351Z,12.35
2023-03-17T23:47:00.677Z,13.27
2023-03-17T23:49:27.312Z,9.95
2023-03-17T23:51:54.406Z,16.45
2023-03-17T23:54:20.767Z,15.27
2023-03-17T23:56:47.942Z,14.70
2023-03-17T23:59:14.313Z,16.80
